Time;durP1;ratioP1;P1;durP2;ratioP2;P2;SDS_P1;SDS_P2;PMS_P1;PMS_P2;Temp;Humidity;BMP_temperature;BMP_pressure;BME280_temperature;BME280_humidity;BME280_pressure;Samples;Min_cycle;Max_cycle;Signal;HPM_P1;HPM_P2
2022/04/15 00:02:06;;;;;;;7.20;4.93;;;;;;;14.80;39.02;95096.19;5050562;28;20242;-75
2022/04/15 00:04:34;;;;;;;5.13;4.47;;;;;;;14.76;38.82;95097.47;5050766;28;20190;-75
2022/04/15 00:07:01;;;;;;;7.67;4.70;;;;;;;14.74;38.85;95091.69;5049053;28;20191;-75
2022/04/15 00:09:30;;;;;;;7.20;4.50;;;;;;;14.70;38.80;95092.13;5050184;28;20230;-76
2022/04/15 00:12:00;;;;;;;6.83;4.27;;;;;;;14.71;38.80;95094.56;5050471;28;20190;-76
2022/04/15 00:14:30;;;;;;;6.87;3.73;;;;;;;14.70;38.57;95099.88;5053237;28;20661;-78
2022/04/15 00:16:57;;;;;;;9.00;4.90;;;;;;;14.68;38.75;95110.31;5070679;28;20255;-77
2022/04/15 00:19:24;;;;;;;8.43;4.47;;;;;;;14.66;38.72;95101.94;5070397;28;20197;-78
2022/04/15 00:21:51;;;;;;;9.40;4.57;;;;;;;14.59;38.82;95095.75;5070518;28;20644;-78
2022/04/15 00:24:18;;;;;;;7.37;4.67;;;;;;;14.62;38.91;95102.38;5070246;28;20198;-78
2022/04/15 00:26:45;;;;;;;5.43;4.57;;;;;;;14.61;38.59;95103.34;5063079;28;20680;-77
2022/04/15 00:29:12;;;;;;;6.50;4.57;;;;;;;14.59;38.69;95105.25;5050398;28;20194;-77
2022/04/15 00:31:40;;;;;;;6.90;4.50;;;;;;;14.51;38.73;95099.13;5048258;28;20619;-77
2022/04/15 00:34:07;;;;;;;7.30;4.37;;;;;;;14.54;38.67;95108.28;5049860;28;20191;-77
2022/04/15 00:36:34;;;;;;;6.67;3.77;;;;;;;14.52;38.64;95099.94;5050221;28;20190;-77
2022/04/15 00:39:00;;;;;;;5.90;3.87;;;;;;;14.45;38.98;95098.88;5050129;28;20655;-77
2022/04/15 00:41:27;;;;;;;5.57;4.30;;;;;;;14.47;38.91;95102.94;5048829;28;20211;-77
2022/04/15 00:43:55;;;;;;;5.03;3.77;;;;;;;14.45;38.81;95102.25;5030334;28;20204;-77
2022/04/15 00:46:22;;;;;;;8.87;4.33;;;;;;;14.40;38.96;95101.91;5030302;28;20215;-78
2022/04/15 00:48:50;;;;;;;7.47;4.07;;;;;;;14.41;39.19;95102.72;5030352;28;20675;-77
2022/04/15 00:51:17;;;;;;;7.10;3.50;;;;;;;14.38;39.37;95108.16;5046770;28;20187;-76
2022/04/15 00:53:46;;;;;;;5.40;4.07;;;;;;;14.34;39.23;95094.78;5050039;28;20195;-78
2022/04/15 00:56:14;;;;;;;5.70;3.70;;;;;;;14.31;39.17;95097.66;5049232;28;20210;-77
2022/04/15 00:58:42;;;;;;;4.67;3.40;;;;;;;14.26;39.20;95098.13;5049394;28;20654;-76
2022/04/15 01:01:09;;;;;;;8.47;4.23;;;;;;;14.15;39.27;95082.91;5049664;28;20195;-76
2022/04/15 01:03:37;;;;;;;6.33;4.10;;;;;;;14.25;39.43;95095.72;5049440;28;20194;-76
2022/04/15 01:06:10;;;;;;;10.50;4.27;;;;;;;14.26;39.61;95105.03;5049833;28;20191;-77
2022/04/15 01:08:40;;;;;;;5.57;3.97;;;;;;;14.18;39.64;95105.78;5049319;28;20234;-76
2022/04/15 01:11:11;;;;;;;8.63;4.00;;;;;;;14.20;39.70;95103.03;5050056;28;20229;-76
2022/04/15 01:13:40;;;;;;;7.43;4.23;;;;;;;14.19;39.91;95111.72;5050263;28;20194;-78
2022/04/15 01:16:09;;;;;;;5.97;4.13;;;;;;;14.15;39.86;95103.50;5049872;28;20566;-75
2022/04/15 01:18:36;;;;;;;6.30;4.23;;;;;;;14.12;39.96;95106.38;5049483;28;20195;-76
2022/04/15 01:21:04;;;;;;;6.70;3.70;;;;;;;14.13;39.99;95104.63;5049518;28;20294;-75
2022/04/15 01:23:32;;;;;;;6.70;4.33;;;;;;;14.11;40.00;95098.78;5049431;28;20223;-78
2022/04/15 01:25:59;;;;;;;7.73;4.00;;;;;;;14.09;40.19;95111.00;5049524;28;20183;-76
2022/04/15 01:28:25;;;;;;;6.23;4.10;;;;;;;14.06;40.26;95106.97;5049759;28;20191;-77
2022/04/15 01:30:52;;;;;;;6.00;3.90;;;;;;;14.04;40.27;95106.31;5049570;28;20187;-76
2022/04/15 01:33:19;;;;;;;10.07;4.00;;;;;;;13.96;40.25;95090.81;5049782;28;20249;-76
2022/04/15 01:35:46;;;;;;;6.03;4.00;;;;;;;13.98;40.39;95094.03;5049543;28;20210;-76
2022/04/15 01:38:14;;;;;;;5.30;3.30;;;;;;;13.98;40.60;95092.25;5049892;28;20203;-77
2022/04/15 01:40:43;;;;;;;4.87;3.83;;;;;;;13.98;40.71;95083.75;5049734;28;20202;-77
2022/04/15 01:43:10;;;;;;;10.77;4.93;;;;;;;13.92;40.64;95086.94;5048882;28;20222;-77
2022/04/15 01:45:37;;;;;;;4.57;4.03;;;;;;;13.93;40.71;95091.09;5049086;28;20740;-77
2022/04/15 01:48:04;;;;;;;7.43;4.20;;;;;;;13.89;40.84;95088.00;5049673;28;20183;-77
2022/04/15 01:50:31;;;;;;;9.00;4.73;;;;;;;13.88;41.01;95083.84;5049366;28;20187;-77
2022/04/15 01:52:59;;;;;;;6.37;4.53;;;;;;;13.86;40.84;95078.06;5050362;28;20676;-78
2022/04/15 01:55:26;;;;;;;8.80;4.47;;;;;;;13.84;41.14;95079.94;5053575;28;20581;-77
2022/04/15 01:57:54;;;;;;;7.17;4.57;;;;;;;13.82;41.20;95081.88;5053240;28;20242;-77
2022/04/15 02:00:21;;;;;;;6.73;4.10;;;;;;;13.79;41.25;95082.97;5053654;28;20241;-77
2022/04/15 02:02:48;;;;;;;5.70;3.83;;;;;;;13.72;41.13;95071.63;5052822;28;20222;-77
2022/04/15 02:05:15;;;;;;;6.10;3.90;;;;;;;13.78;41.38;95080.53;5053118;28;20206;-78
2022/04/15 02:07:41;;;;;;;5.17;3.90;;;;;;;13.75;41.40;95081.63;5052823;28;20183;-76
2022/04/15 02:10:09;;;;;;;5.07;4.13;;;;;;;13.53;41.63;95054.63;5053217;28;20183;-76
2022/04/15 02:12:36;;;;;;;8.27;4.10;;;;;;;13.68;41.38;95070.31;5052917;28;20183;-76
2022/04/15 02:15:06;;;;;;;7.03;4.17;;;;;;;13.70;41.47;95068.44;5052769;28;20199;-77
2022/04/15 02:17:32;;;;;;;6.43;4.30;;;;;;;13.70;41.40;95072.75;5052709;28;20638;-77
2022/04/15 02:20:00;;;;;;;5.90;4.13;;;;;;;13.67;41.45;95073.84;5052876;28;20187;-78
2022/04/15 02:22:26;;;;;;;8.63;4.83;;;;;;;13.65;41.40;95073.19;5052229;28;20210;-75
2022/04/15 02:24:53;;;;;;;7.17;3.70;;;;;;;13.63;41.64;95067.38;5052854;28;20183;-77
2022/04/15 02:27:20;;;;;;;6.57;3.93;;;;;;;13.60;41.58;95061.72;5052574;28;20190;-76
2022/04/15 02:29:47;;;;;;;7.07;3.87;;;;;;;13.58;41.51;95069.59;5052152;28;20837;-76
2022/04/15 02:32:15;;;;;;;10.20;4.50;;;;;;;13.56;41.90;95071.53;5052812;28;20588;-76
2022/04/15 02:34:42;;;;;;;6.53;4.00;;;;;;;13.51;41.98;95074.53;5052602;28;20566;-76
2022/04/15 02:37:09;;;;;;;8.80;4.27;;;;;;;13.53;42.08;95074.38;5052892;28;20191;-80
2022/04/15 02:39:36;;;;;;;5.93;4.10;;;;;;;13.51;41.82;95071.13;5052251;28;20191;-77
2022/04/15 02:42:03;;;;;;;6.07;4.30;;;;;;;13.49;41.96;95076.41;5052608;28;20219;-76
2022/04/15 02:44:33;;;;;;;7.27;4.17;;;;;;;13.48;42.13;95077.38;5052336;28;20191;-78
2022/04/15 02:47:00;;;;;;;5.17;3.80;;;;;;;13.48;42.19;95071.44;5052462;28;20191;-77
2022/04/15 02:49:29;;;;;;;5.40;3.87;;;;;;;13.45;42.10;95069.97;5052424;28;20191;-78
2022/04/15 02:51:56;;;;;;;6.07;4.20;;;;;;;13.43;42.39;95071.06;5052140;28;20195;-76
2022/04/15 02:54:23;;;;;;;5.87;4.13;;;;;;;13.41;42.40;95072.97;5052539;28;20273;-77
2022/04/15 02:56:50;;;;;;;8.87;3.90;;;;;;;13.39;42.64;95077.44;5051674;28;20248;-77
2022/04/15 02:59:17;;;;;;;9.70;4.37;;;;;;;13.37;42.44;95079.34;5052018;28;20187;-78
2022/04/15 03:01:48;;;;;;;5.40;4.30;;;;;;;13.26;42.59;95058.06;5051638;28;20245;-79
2022/04/15 03:04:14;;;;;;;5.27;3.93;;;;;;;13.29;42.75;95075.72;5051355;28;20179;-77
2022/04/15 03:06:43;;;;;;;5.83;4.00;;;;;;;13.30;43.00;95077.38;5051495;28;20553;-76
2022/04/15 03:09:09;;;;;;;5.60;4.13;;;;;;;13.29;42.91;95073.16;5051793;28;20229;-76
2022/04/15 03:11:38;;;;;;;5.97;3.90;;;;;;;13.18;42.95;95059.69;5051816;28;20210;-77
2022/04/15 03:14:06;;;;;;;5.93;4.30;;;;;;;13.25;43.15;95079.53;5051832;28;20223;-77
2022/04/15 03:16:34;;;;;;;6.83;4.50;;;;;;;13.14;43.11;95054.03;5051391;28;20625;-78
2022/04/15 03:19:05;;;;;;;11.53;4.67;;;;;;;13.22;43.22;95082.41;5051511;28;20187;-80
2022/04/15 03:21:32;;;;;;;9.67;5.23;;;;;;;13.21;43.38;95073.06;5051650;28;20190;-77
2022/04/15 03:24:00;;;;;;;7.40;4.90;;;;;;;13.20;43.24;95070.63;5051594;28;20215;-77
2022/04/15 03:26:27;;;;;;;13.00;4.63;;;;;;;13.15;43.42;95068.50;5051400;28;20191;-75
2022/04/15 03:28:54;;;;;;;8.27;4.83;;;;;;;13.16;43.31;95077.81;5051556;28;20190;-77
2022/04/15 03:31:21;;;;;;;7.70;4.37;;;;;;;13.14;43.63;95077.16;5051236;28;20195;-76
2022/04/15 03:33:48;;;;;;;6.30;4.60;;;;;;;13.10;43.62;95080.97;5051411;28;20195;-79
2022/04/15 03:36:15;;;;;;;10.90;5.07;;;;;;;13.07;43.64;95078.66;5051328;28;20175;-78
2022/04/15 03:38:43;;;;;;;6.70;4.07;;;;;;;13.10;43.55;95090.44;5051570;28;20179;-77
2022/04/15 03:41:11;;;;;;;5.43;4.30;;;;;;;13.09;43.76;95091.38;5051651;28;20635;-77
2022/04/15 03:43:38;;;;;;;14.17;4.73;;;;;;;13.08;43.69;95093.13;5050898;28;20211;-77
2022/04/15 03:46:04;;;;;;;7.90;4.70;;;;;;;13.02;43.60;95075.72;5051128;28;20195;-77
2022/04/15 03:48:31;;;;;;;7.67;4.63;;;;;;;13.05;43.80;95086.53;5051180;28;20249;-79
2022/04/15 03:50:58;;;;;;;11.93;4.87;;;;;;;13.05;43.74;95088.28;5050667;28;20183;-78
2022/04/15 03:53:25;;;;;;;8.20;4.30;;;;;;;13.00;44.17;95083.59;5050977;28;20206;-77
2022/04/15 03:55:52;;;;;;;7.87;4.47;;;;;;;12.86;44.10;95063.50;5050810;28;20701;-78
2022/04/15 03:58:20;;;;;;;9.97;5.67;;;;;;;13.03;44.24;95093.53;5051138;28;20199;-78
2022/04/15 04:00:47;;;;;;;8.70;5.23;;;;;;;13.03;44.20;95090.19;5050894;28;20191;-78
2022/04/15 04:03:15;;;;;;;9.50;4.70;;;;;;;13.04;44.30;95096.94;5050712;28;20214;-77
2022/04/15 04:05:42;;;;;;;8.37;4.53;;;;;;;13.04;44.40;95096.94;5051253;28;20610;-78
2022/04/15 04:08:09;;;;;;;7.33;4.70;;;;;;;12.84;44.30;95062.84;5050832;28;20231;-76
2022/04/15 04:10:36;;;;;;;7.93;4.50;;;;;;;13.07;44.38;95097.44;5050610;28;20670;-75
2022/04/15 04:13:03;;;;;;;9.23;4.70;;;;;;;13.09;44.49;95099.88;5050521;28;20187;-76
2022/04/15 04:15:32;;;;;;;8.47;5.37;;;;;;;13.11;44.47;95094.59;5050274;28;20184;-78
2022/04/15 04:17:58;;;;;;;7.60;4.90;;;;;;;13.09;44.58;95089.63;5050653;28;20222;-77
2022/04/15 04:20:26;;;;;;;10.20;5.07;;;;;;;13.16;44.65;95103.47;5049979;28;20566;-77
2022/04/15 04:22:52;;;;;;;15.97;6.07;;;;;;;13.19;44.92;95098.06;5050413;28;20227;-76
2022/04/15 04:25:19;;;;;;;10.70;4.97;;;;;;;13.20;44.80;95098.88;5049703;28;20645;-76
2022/04/15 04:27:48;;;;;;;14.63;5.03;;;;;;;13.29;44.92;95106.56;5048137;28;20555;-77
2022/04/15 04:30:15;;;;;;;9.13;4.87;;;;;;;13.35;45.34;95107.75;5070398;28;20272;-77
2022/04/15 04:32:49;;;;;;;11.80;6.10;;;;;;;13.46;45.60;95109.31;5054034;28;20198;-77
2022/04/15 04:35:17;;;;;;;13.73;5.37;;;;;;;13.72;44.62;95110.19;5049687;28;20572;-77
2022/04/15 04:37:44;;;;;;;19.10;5.43;;;;;;;13.68;43.69;95065.19;5050280;28;20282;-76
2022/04/15 04:40:11;;;;;;;7.40;5.13;;;;;;;14.17;43.50;95117.03;5050349;28;20183;-78
2022/04/15 04:42:39;;;;;;;14.90;6.00;;;;;;;14.35;43.65;95098.97;5050492;28;20222;-79
2022/04/15 04:45:07;;;;;;;12.63;6.00;;;;;;;14.65;43.61;95110.63;5049763;28;20198;-77
2022/04/15 04:47:34;;;;;;;11.93;5.90;;;;;;;14.86;43.26;95106.88;5050114;28;20199;-77
2022/04/15 04:50:03;;;;;;;13.10;6.00;;;;;;;15.12;42.89;95112.78;5050072;28;20274;-77
2022/04/15 04:52:29;;;;;;;17.10;6.57;;;;;;;15.35;42.64;95114.78;5048645;28;20197;-76
2022/04/15 04:54:56;;;;;;;18.17;6.53;;;;;;;15.55;42.53;95119.53;5049975;28;20190;-75
2022/04/15 04:57:23;;;;;;;16.07;7.10;;;;;;;15.76;42.17;95119.13;5049523;28;20187;-75
2022/04/15 04:59:50;;;;;;;13.57;6.73;;;;;;;15.96;41.65;95122.19;5049861;28;20199;-77
2022/04/15 05:02:17;;;;;;;16.73;7.13;;;;;;;16.14;41.46;95121.22;5049905;28;20194;-77
2022/04/15 05:04:44;;;;;;;10.90;6.50;;;;;;;16.28;40.96;95111.06;5050012;28;20781;-82
2022/04/15 05:07:14;;;;;;;13.07;7.53;;;;;;;16.46;40.92;95121.22;5049958;28;20274;-79
2022/04/15 05:09:42;;;;;;;15.63;8.20;;;;;;;16.61;40.46;95123.13;5049827;28;20233;-82
2022/04/15 05:12:10;;;;;;;17.63;8.23;;;;;;;16.63;40.76;95097.97;5048919;28;20183;-82
2022/04/15 05:14:37;;;;;;;6.83;3.50;;;;;;;17.13;64.05;95123.50;5050014;28;20692;-80
2022/04/15 05:17:04;;;;;;;7.67;3.20;;;;;;;17.57;65.34;95120.38;5049397;28;20567;-79
2022/04/15 05:19:31;;;;;;;5.77;3.37;;;;;;;18.16;63.84;95125.88;5050314;28;20190;-78
2022/04/15 05:21:58;;;;;;;7.63;3.60;;;;;;;18.74;61.22;95124.44;5048364;28;20252;-82
2022/04/15 05:24:26;;;;;;;8.00;4.07;;;;;;;19.29;57.67;95128.34;5050558;28;20670;-78
2022/04/15 05:26:53;;;;;;;12.63;5.20;;;;;;;19.86;53.33;95126.84;5049195;28;20190;-78
2022/04/15 05:29:20;;;;;;;13.50;6.10;;;;;;;20.18;46.36;95130.72;5048953;28;20187;-78
2022/04/15 05:31:47;;;;;;;13.57;6.00;;;;;;;20.43;47.50;95115.56;5052110;28;20198;-76
2022/04/15 05:34:13;;;;;;;15.63;6.00;;;;;;;20.87;45.79;95129.28;5052289;28;20582;-82
2022/04/15 05:36:40;;;;;;;13.40;6.90;;;;;;;21.22;43.09;95125.69;5049607;28;20725;-76
2022/04/15 05:39:07;;;;;;;16.73;7.23;;;;;;;21.59;41.88;95133.25;5050034;28;20187;-75
2022/04/15 05:41:35;;;;;;;16.77;6.80;;;;;;;21.89;40.98;95126.78;5049336;28;20190;-77
2022/04/15 05:44:03;;;;;;;21.40;6.63;;;;;;;22.29;39.45;95121.63;5048280;28;20230;-78
2022/04/15 05:46:30;;;;;;;18.27;6.70;;;;;;;22.63;38.71;95122.44;5049662;28;20191;-78
2022/04/15 05:48:57;;;;;;;18.40;7.65;;;;;;;23.03;38.17;95121.41;5048684;28;20195;-77
2022/04/15 05:51:24;;;;;;;15.23;7.35;;;;;;;23.40;37.25;95128.72;5048837;28;20256;-77
2022/04/15 05:53:52;;;;;;;20.63;7.78;;;;;;;23.73;36.86;95131.22;5049024;28;20206;-81
2022/04/15 05:56:19;;;;;;;15.38;7.47;;;;;;;24.06;36.64;95123.22;5048564;28;20195;-77
2022/04/15 05:58:47;;;;;;;16.73;7.35;;;;;;;24.37;35.85;95130.25;5049550;28;20195;-78
2022/04/15 06:01:14;;;;;;;15.80;7.80;;;;;;;24.66;35.33;95131.44;5050315;28;20195;-80
2022/04/15 06:03:41;;;;;;;16.50;8.75;;;;;;;24.92;34.65;95122.56;5048803;28;20258;-77
2022/04/15 06:06:08;;;;;;;26.83;10.07;;;;;;;25.16;33.66;95122.75;5049371;28;20225;-77
2022/04/15 06:08:34;;;;;;;25.30;9.48;;;;;;;25.37;32.50;95127.53;5049652;28;20254;-77
2022/04/15 06:11:01;;;;;;;22.55;10.23;;;;;;;25.51;33.01;95118.50;5049139;28;20195;-80
2022/04/15 06:13:29;;;;;;;14.35;8.50;;;;;;;25.73;33.46;95121.47;5049734;28;20569;-77
2022/04/15 06:15:58;;;;;;;18.38;9.27;;;;;;;25.98;33.40;95128.41;5050078;28;20269;-78
2022/04/15 06:18:26;;;;;;;16.55;8.63;;;;;;;26.15;32.40;95128.59;5050239;28;20206;-79
2022/04/15 06:20:53;;;;;;;16.48;8.27;;;;;;;26.37;33.35;95126.25;5049027;28;20191;-76
2022/04/15 06:23:21;;;;;;;14.18;7.07;;;;;;;26.54;34.06;95121.16;5049537;28;20215;-79
2022/04/15 06:25:48;;;;;;;16.15;7.32;;;;;;;26.82;34.68;95128.38;5050395;28;20264;-79
2022/04/15 06:28:16;;;;;;;15.20;7.03;;;;;;;27.06;35.48;95129.16;5050072;28;20206;-78
2022/04/15 06:30:43;;;;;;;14.05;6.63;;;;;;;27.29;35.48;95125.72;5047952;28;20241;-80
2022/04/15 06:33:11;;;;;;;10.60;6.20;;;;;;;27.51;35.09;95122.28;5049427;28;20211;-79
2022/04/15 06:35:39;;;;;;;7.68;5.85;;;;;;;27.70;34.24;95125.50;5048823;28;20698;-81
2022/04/15 06:38:06;;;;;;;12.80;5.57;;;;;;;27.87;34.95;95114.28;5049184;28;20202;-79
2022/04/15 06:40:33;;;;;;;12.88;6.70;;;;;;;28.11;33.18;95125.47;5048568;28;20732;-82
2022/04/15 06:43:00;;;;;;;11.27;6.70;;;;;;;28.25;33.24;95111.00;5049375;28;20214;-78
2022/04/15 06:45:27;;;;;;;8.93;6.03;;;;;;;28.40;33.28;95115.75;5049107;28;20187;-79
2022/04/15 06:47:54;;;;;;;13.85;6.15;;;;;;;28.51;32.85;95109.63;5049538;28;20207;-86
2022/04/15 06:50:22;;;;;;;16.63;6.43;;;;;;;28.49;32.96;95091.41;5049002;28;20187;-80
2022/04/15 06:52:49;;;;;;;12.38;6.40;;;;;;;28.71;32.80;95115.19;5049291;28;20210;-84
2022/04/15 06:55:16;;;;;;;18.88;6.75;;;;;;;28.90;32.35;95122.84;5048904;28;20195;-81
2022/04/15 06:57:44;;;;;;;8.52;6.75;;;;;;;29.02;32.17;95122.75;5050286;28;20206;-81
2022/04/15 07:00:13;;;;;;;7.38;5.38;;;;;;;29.11;32.43;95110.78;5047998;28;20210;-82
2022/04/15 07:02:41;;;;;;;12.52;5.60;;;;;;;29.29;32.42;95113.13;5049728;28;20230;-80
2022/04/15 07:05:10;;;;;;;11.35;5.95;;;;;;;29.45;32.27;95112.28;5051070;28;20686;-82
2022/04/15 07:07:39;;;;;;;9.75;6.25;;;;;;;29.59;31.66;95110.09;5053919;28;20198;-81
2022/04/15 07:10:07;;;;;;;9.25;5.72;;;;;;;29.70;31.93;95110.97;5049487;28;20195;-89
2022/04/15 07:12:34;;;;;;;11.68;6.07;;;;;;;29.53;32.30;95075.97;5049176;28;20797;-84
2022/04/15 07:15:01;;;;;;;12.52;7.03;;;;;;;29.92;32.21;95110.94;5050700;28;20207;-80
2022/04/15 07:17:28;;;;;;;15.52;6.28;;;;;;;30.03;31.85;95112.66;5050179;28;20276;-80
2022/04/15 07:19:55;;;;;;;9.43;5.53;;;;;;;30.14;32.20;95113.53;5049362;28;20191;-84
2022/04/15 07:22:22;;;;;;;9.82;4.68;;;;;;;30.23;32.27;95101.53;5048898;28;20214;-83
2022/04/15 07:24:51;;;;;;;9.43;5.60;;;;;;;30.14;32.20;95077.44;5050463;28;20739;-83
2022/04/15 07:27:18;;;;;;;8.25;5.78;;;;;;;30.42;32.41;95102.72;5049387;28;20195;-80
2022/04/15 07:29:45;;;;;;;10.00;5.88;;;;;;;30.51;32.06;95107.53;5050441;28;20581;-82
2022/04/15 07:32:13;;;;;;;11.60;6.38;;;;;;;30.54;31.45;95101.78;5050044;28;20233;-80
2022/04/15 07:34:40;;;;;;;14.85;5.70;;;;;;;30.54;32.12;95092.00;5050156;28;20202;-79
2022/04/15 07:37:07;;;;;;;14.95;5.65;;;;;;;30.66;32.46;95110.31;5048051;28;20645;-78
2022/04/15 07:39:33;;;;;;;12.05;5.28;;;;;;;30.72;32.93;95102.19;5045362;28;20199;-79
2022/04/15 07:42:02;;;;;;;11.80;5.72;;;;;;;30.77;32.97;95103.28;5049212;28;20194;-83
2022/04/15 07:44:30;;;;;;;9.18;5.55;;;;;;;30.81;32.00;95099.06;5049736;28;20219;-83
2022/04/15 07:46:56;;;;;;;6.80;5.00;;;;;;;30.83;31.22;95102.25;5047520;28;20210;-85
2022/04/15 07:49:23;;;;;;;12.35;6.53;;;;;;;30.80;30.21;95089.56;5048354;28;20233;-76
2022/04/15 07:51:50;;;;;;;18.42;7.20;;;;;;;30.76;28.20;95099.84;5047385;28;20187;-77
2022/04/15 07:54:17;;;;;;;12.73;7.32;;;;;;;30.64;26.56;95094.69;5047869;28;20186;-80
2022/04/15 07:56:44;;;;;;;10.27;6.60;;;;;;;30.55;27.15;95098.06;5047586;28;20662;-76
2022/04/15 07:59:12;;;;;;;11.40;6.40;;;;;;;30.49;28.41;95098.03;5049062;28;20199;-81
2022/04/15 08:01:39;;;;;;;9.45;5.30;;;;;;;30.36;28.59;95071.28;5048108;28;20714;-77
2022/04/15 08:04:06;;;;;;;10.98;5.80;;;;;;;30.45;28.80;95091.66;5049841;28;20744;-84
2022/04/15 08:06:33;;;;;;;11.18;4.97;;;;;;;30.44;29.20;95097.19;5050072;28;20195;-83
2022/04/15 08:09:01;;;;;;;7.40;4.75;;;;;;;30.43;29.08;95087.69;5049925;28;20773;-81
2022/04/15 08:11:28;;;;;;;10.48;5.25;;;;;;;30.40;29.17;95089.00;5050156;28;20622;-81
2022/04/15 08:13:56;;;;;;;11.77;6.40;;;;;;;30.33;28.01;95083.13;5049736;28;20191;-80
2022/04/15 08:16:28;;;;;;;8.40;5.70;;;;;;;30.27;27.59;95089.41;5050243;28;20203;-80
2022/04/15 08:18:56;;;;;;;8.02;4.72;;;;;;;30.21;28.70;95082.50;5045011;28;20282;-78
2022/04/15 08:21:23;;;;;;;8.88;5.60;;;;;;;30.18;28.00;95090.91;5049476;28;20199;-78
2022/04/15 08:23:50;;;;;;;8.77;5.45;;;;;;;29.98;28.27;95058.00;5049676;28;20225;-80
2022/04/15 08:26:17;;;;;;;7.70;4.88;;;;;;;30.08;28.82;95078.41;5049588;28;20199;-80
2022/04/15 08:28:46;;;;;;;7.97;4.68;;;;;;;30.06;28.97;95080.50;5050298;28;20670;-81
2022/04/15 08:31:13;;;;;;;7.63;4.60;;;;;;;30.03;29.13;95078.34;5049554;28;20198;-80
2022/04/15 08:33:42;;;;;;;4.15;3.70;;;;;;;29.97;29.21;95074.09;5050546;28;20195;-81
2022/04/15 08:36:09;;;;;;;5.57;4.90;;;;;;;29.95;28.58;95074.31;5050282;28;20191;-82
2022/04/15 08:38:36;;;;;;;8.60;5.85;;;;;;;29.88;27.30;95062.38;5050031;28;20190;-77
2022/04/15 08:41:04;;;;;;;8.15;5.28;;;;;;;29.70;26.45;95045.84;5049815;28;20191;-79
2022/04/15 08:43:41;;;;;;;8.02;5.20;;;;;;;29.63;26.35;95061.09;5049962;28;20282;-79
2022/04/15 08:46:09;;;;;;;9.60;5.45;;;;;;;29.51;27.17;95055.13;5049875;28;20273;-81
2022/04/15 08:48:36;;;;;;;7.15;4.60;;;;;;;29.30;28.15;95029.59;5049475;28;20214;-82
2022/04/15 08:51:06;;;;;;;6.80;4.65;;;;;;;29.40;28.75;95050.78;5048170;28;20186;-79
2022/04/15 08:53:34;;;;;;;8.02;5.25;;;;;;;29.31;29.29;95042.50;5049806;28;20191;-79
2022/04/15 08:56:02;;;;;;;10.02;4.68;;;;;;;29.31;29.26;95049.63;5047319;28;20214;-78
2022/04/15 08:58:29;;;;;;;7.32;4.57;;;;;;;29.28;29.24;95044.88;5049343;28;20202;-79
2022/04/15 09:00:55;;;;;;;5.45;4.15;;;;;;;29.21;29.75;95039.78;5046605;28;20198;-79
2022/04/15 09:03:22;;;;;;;9.68;5.75;;;;;;;29.15;29.47;95028.38;5048025;28;20201;-78
2022/04/15 09:05:51;;;;;;;4.70;4.18;;;;;;;29.10;29.50;95033.59;5049300;28;20698;-79
2022/04/15 09:08:19;;;;;;;8.57;4.60;;;;;;;29.04;29.18;95026.66;5049048;28;20314;-79
2022/04/15 09:10:56;;;;;;;6.57;5.30;;;;;;;28.94;27.98;95021.25;5049172;28;20681;-77
2022/04/15 09:13:28;;;;;;;6.63;5.38;;;;;;;28.74;28.23;94995.44;5048652;28;20198;-77
2022/04/15 09:15:55;;;;;;;3.80;3.40;;;;;;;28.75;29.35;95000.44;5047594;28;20209;-78
2022/04/15 09:18:36;;;;;;;6.55;5.15;;;;;;;28.67;29.37;94994.81;5047587;28;20187;-75
2022/04/15 09:21:24;;;;;;;7.80;5.22;;;;;;;28.63;29.32;94997.16;5047096;28;20248;-77
2022/04/15 09:23:53;;;;;;;7.75;4.88;;;;;;;28.55;29.04;94991.50;5047788;28;20431;-76
2022/04/15 09:26:21;;;;;;;9.93;5.03;;;;;;;28.46;28.30;94996.41;5047848;28;20722;-76
2022/04/15 09:28:48;;;;;;;7.03;4.13;;;;;;;28.40;29.50;94992.09;5047590;28;20187;-75
2022/04/15 09:31:16;;;;;;;9.80;5.15;;;;;;;28.31;27.79;94988.25;5048480;28;20241;-76
2022/04/15 09:33:57;;;;;;;8.65;5.13;;;;;;;28.17;27.53;94980.69;5048369;28;20206;-77
2022/04/15 09:36:25;;;;;;;6.75;4.20;;;;;;;28.08;28.60;94974.25;5045986;28;20202;-76
2022/04/15 09:38:58;;;;;;;8.00;4.05;;;;;;;28.03;29.58;94970.75;5048545;28;20620;-74
2022/04/15 09:41:26;;;;;;;9.00;4.18;;;;;;;27.98;29.42;94972.25;5048153;28;20199;-78
2022/04/15 09:43:54;;;;;;;7.50;4.53;;;;;;;27.91;28.74;94966.34;5046952;28;20203;-76
2022/04/15 09:46:21;;;;;;;9.43;4.53;;;;;;;27.83;27.96;94961.50;5048069;28;20195;-75
2022/04/15 09:49:08;;;;;;;8.60;5.00;;;;;;;27.75;27.83;94954.00;5048971;28;20191;-74
2022/04/15 09:51:44;;;;;;;7.20;4.30;;;;;;;27.66;28.89;94956.19;5046708;28;20187;-78
2022/04/15 09:54:23;;;;;;;7.75;3.60;;;;;;;27.61;29.92;94947.44;5048210;28;20751;-75
2022/04/15 09:56:54;;;;;;;8.40;4.15;;;;;;;27.54;29.23;94931.00;5048102;28;20191;-76
2022/04/15 09:59:23;;;;;;;7.30;3.80;;;;;;;27.50;29.77;94934.13;5048347;28;20194;-73
2022/04/15 10:01:54;;;;;;;5.03;3.78;;;;;;;27.49;29.86;94932.53;5047753;28;20249;-74
2022/04/15 10:04:25;;;;;;;5.57;3.38;;;;;;;27.46;29.88;94926.94;5048290;28;20230;-76
2022/04/15 10:06:53;;;;;;;6.53;4.00;;;;;;;27.40;28.89;94925.28;5044278;28;20191;-77
2022/04/15 10:09:21;;;;;;;5.65;3.58;;;;;;;27.37;29.09;94912.59;5048255;28;20234;-77
2022/04/15 10:11:50;;;;;;;4.28;3.40;;;;;;;27.25;29.14;94905.59;5048054;28;20195;-75
2022/04/15 10:14:19;;;;;;;7.38;3.92;;;;;;;27.28;30.30;94914.81;5047268;28;20593;-81
2022/04/15 10:16:46;;;;;;;5.78;3.55;;;;;;;27.23;29.66;94905.03;5048606;28;20257;-79
2022/04/15 10:19:13;;;;;;;4.10;3.47;;;;;;;27.20;29.74;94902.88;5049273;28;20851;-88
2022/04/15 10:21:42;;;;;;;6.85;3.30;;;;;;;27.16;30.07;94899.13;5050589;28;20191;-78
2022/04/15 10:24:09;;;;;;;5.10;3.15;;;;;;;27.16;30.50;94898.31;5050513;28;20205;-88
2022/04/15 10:26:41;;;;;;;5.38;3.75;;;;;;;27.14;30.39;94895.94;5051374;28;20939;-81
2022/04/15 10:29:09;;;;;;;7.38;2.90;;;;;;;27.10;30.82;94892.19;5057590;28;20194;-91
2022/04/15 10:31:41;;;;;;;3.55;2.85;;;;;;;27.08;30.18;94883.72;5051260;28;20195;-82
2022/04/15 10:34:13;;;;;;;3.92;3.00;;;;;;;27.05;30.62;94883.41;5050378;28;20744;-81
2022/04/15 10:36:45;;;;;;;7.47;3.08;;;;;;;27.02;29.99;94884.66;5049879;28;20224;-81
2022/04/15 10:39:14;;;;;;;4.30;3.03;;;;;;;26.99;30.37;94875.44;5047744;28;20725;-80
2022/04/15 10:41:58;;;;;;;5.95;3.35;;;;;;;26.93;30.87;94870.31;5049998;28;20195;-77
2022/04/15 10:44:32;;;;;;;5.07;3.03;;;;;;;26.94;30.92;94875.34;5046912;28;20214;-77
2022/04/15 10:47:00;;;;;;;6.53;2.85;;;;;;;26.91;30.65;94862.69;5049144;28;20272;-78
2022/04/15 10:49:30;;;;;;;5.00;3.40;;;;;;;26.91;30.83;94859.28;5049168;28;20234;-80
2022/04/15 10:52:00;;;;;;;5.65;3.00;;;;;;;26.88;30.93;94857.91;5049189;28;20191;-80
2022/04/15 10:54:42;;;;;;;4.88;3.53;;;;;;;26.83;29.34;94854.41;5049176;28;20237;-81
2022/04/15 10:57:14;;;;;;;5.25;3.00;;;;;;;26.77;30.19;94858.78;5047778;28;20230;-82
2022/04/15 11:02:38;;;;;;;4.38;3.33;;;;;;;26.71;29.20;94854.44;5048604;28;20222;-84
2022/04/15 11:05:07;;;;;;;5.22;3.17;;;;;;;26.40;28.59;94816.31;5048799;28;20353;-79
2022/04/15 11:07:47;;;;;;;6.30;3.05;;;;;;;26.59;30.35;94843.19;5049691;28;20695;-77
2022/04/15 11:10:46;;;;;;;4.72;2.67;;;;;;;26.58;31.22;94838.97;5048799;28;20286;-82
2022/04/15 11:13:34;;;;;;;4.43;3.00;;;;;;;26.56;29.74;94835.81;5048863;28;20585;-78
2022/04/15 11:16:02;;;;;;;6.25;3.47;;;;;;;26.49;29.05;94836.72;5046711;28;20187;-79
2022/04/15 11:18:50;;;;;;;4.78;2.92;;;;;;;26.47;29.79;94830.13;5049323;28;20224;-81
2022/04/15 11:21:18;;;;;;;5.15;3.45;;;;;;;26.47;29.73;94835.38;5049987;28;20341;-79
2022/04/15 11:23:49;;;;;;;5.10;2.92;;;;;;;26.45;29.27;94832.16;5050726;28;20202;-77
2022/04/15 11:26:16;;;;;;;2.70;2.40;;;;;;;26.45;31.02;94819.06;5049913;28;20609;-77
2022/04/15 11:28:46;;;;;;;6.07;3.22;;;;;;;26.43;30.28;94821.91;5051799;28;20197;-78
2022/04/15 11:31:23;;;;;;;4.20;2.25;;;;;;;26.42;31.04;94815.03;5049280;28;20195;-76
2022/04/15 11:33:51;;;;;;;5.22;2.78;;;;;;;26.39;28.78;94817.34;5049214;28;20674;-76
2022/04/15 11:36:19;;;;;;;5.50;3.85;;;;;;;26.34;28.65;94809.38;5047560;28;20187;-81
2022/04/15 11:38:46;;;;;;;4.32;2.90;;;;;;;26.33;29.08;94813.03;5048343;28;20202;-78
2022/04/15 11:41:17;;;;;;;9.27;3.10;;;;;;;26.32;28.72;94806.97;5045315;28;20203;-76